Time,TemperatureF,DewpointF,PressureIn,WindDirection,WindDirectionDegrees,WindSpeedMPH,WindSpeedGustMPH,Humidity,HourlyPrecipIn,Conditions,Clouds,dailyrainin,SoftwareType,DateUTC
2013-01-22 00:01:00,20.4,19.0,29.77,WSW,247,2.0,2.0,94,-99.99,,,-99.99,tws,2013-01-22 05:01:00,
2013-01-22 00:02:00,20.7,19.2,29.77,WSW,247,1.2,1.2,94,-99.99,,,-99.99,tws,2013-01-22 05:02:00,
2013-01-22 00:03:00,20.9,19.4,29.77,WSW,247,0.0,0.0,94,-99.99,,,-99.99,tws,2013-01-22 05:03:00,
2013-01-22 00:05:00,21.2,19.7,29.77,WSW,247,0.0,0.0,93,-99.99,,,-99.99,tws,2013-01-22 05:05:00,
2013-01-22 00:10:00,19.0,17.4,29.77,North,360,6.4,6.4,93,-99.99,,,-99.99,tws,2013-01-22 05:10:00,
2013-01-22 00:15:00,20.2,18.6,29.77,North,360,10.8,10.8,93,-99.99,,,-99.99,tws,2013-01-22 05:15:00,
2013-01-22 00:20:00,20.5,18.8,29.77,North,0,6.6,6.6,92,-99.99,,,-99.99,tws,2013-01-22 05:20:00,
2013-01-22 00:25:00,20.8,18.8,29.77,North,360,7.7,7.7,92,-99.99,,,-99.99,tws,2013-01-22 05:25:00,
2013-01-22 00:30:00,20.7,18.2,29.77,North,360,10.1,10.1,90,-99.99,,,-99.99,tws,2013-01-22 05:30:00,
2013-01-22 00:35:00,20.5,17.8,29.77,North,0,12.4,12.4,89,-99.99,,,-99.99,tws,2013-01-22 05:35:00,
2013-01-22 00:40:00,20.4,17.8,29.77,ENE,67,6.0,6.0,89,-99.99,,,-99.99,tws,2013-01-22 05:40:00,
2013-01-22 00:45:00,20.5,18.1,29.77,NE,45,6.0,6.0,90,-99.99,,,-99.99,tws,2013-01-22 05:45:00,
2013-01-22 00:50:00,19.9,17.5,29.77,North,0,7.0,7.0,90,-99.99,,,-99.99,tws,2013-01-22 05:50:00,
2013-01-22 00:55:00,19.5,17.0,29.77,North,360,7.0,7.0,89,-99.99,,,-99.99,tws,2013-01-22 05:55:00,
2013-01-22 01:00:00,19.2,16.2,29.77,NW,315,9.1,9.1,88,-99.99,,,-99.99,tws,2013-01-22 06:00:00,
2013-01-22 01:06:00,19.2,16.2,29.77,North,0,6.6,6.6,88,-99.99,,,-99.99,tws,2013-01-22 06:06:00,
2013-01-22 01:11:00,19.2,16.1,29.77,North,0,5.2,5.2,87,-99.99,,,-99.99,tws,2013-01-22 06:11:00,
2013-01-22 01:16:00,19.6,16.7,29.77,North,0,5.0,5.0,88,-99.99,,,-99.99,tws,2013-01-22 06:16:00,
2013-01-22 01:21:00,19.1,16.0,29.77,North,0,7.7,7.7,87,-99.99,,,-99.99,tws,2013-01-22 06:21:00,
2013-01-22 01:26:00,19.2,16.3,29.77,North,360,8.6,8.6,88,-99.99,,,-99.99,tws,2013-01-22 06:26:00,
2013-01-22 01:31:00,19.2,16.0,29.77,North,0,3.7,3.7,87,-99.99,,,-99.99,tws,2013-01-22 06:31:00,
2013-01-22 01:36:00,18.7,15.2,29.78,North,360,11.0,11.0,85,-99.99,,,-99.99,tws,2013-01-22 06:36:00,
2013-01-22 01:41:00,18.9,14.7,29.78,North,360,9.5,9.5,83,-99.99,,,-99.99,tws,2013-01-22 06:41:00,
2013-01-22 01:46:00,19.0,14.9,29.78,North,0,11.3,11.3,84,-99.99,,,-99.99,tws,2013-01-22 06:46:00,
2013-01-22 01:51:00,19.2,14.8,29.78,North,360,10.3,10.3,82,-99.99,,,-99.99,tws,2013-01-22 06:51:00,
2013-01-22 01:57:00,19.1,14.4,29.79,North,0,9.3,9.3,81,-99.99,,,-99.99,tws,2013-01-22 06:57:00,
2013-01-22 02:02:00,18.6,14.3,29.79,North,0,6.9,6.9,83,-99.99,,,-99.99,tws,2013-01-22 07:02:00,
2013-01-22 02:07:00,18.7,14.0,29.79,NNW,337,2.0,2.0,81,-99.99,,,-99.99,tws,2013-01-22 07:07:00,
2013-01-22 02:12:00,18.9,12.9,29.79,NW,315,9.2,9.2,77,-99.99,,,-99.99,tws,2013-01-22 07:12:00,
2013-01-22 02:17:00,18.9,12.3,29.80,NW,315,5.2,5.2,75,-99.99,,,-99.99,tws,2013-01-22 07:17:00,
2013-01-22 02:22:00,19.1,12.1,29.80,WNW,292,5.5,5.5,73,-99.99,,,-99.99,tws,2013-01-22 07:22:00,
2013-01-22 02:27:00,19.5,11.6,29.80,NW,315,2.5,2.5,70,-99.99,,,-99.99,tws,2013-01-22 07:27:00,
2013-01-22 02:32:00,19.6,12.4,29.80,NNW,337,0.0,0.0,73,-99.99,,,-99.99,tws,2013-01-22 07:32:00,
2013-01-22 02:37:00,19.3,12.6,29.80,North,360,0.0,0.0,74,-99.99,,,-99.99,tws,2013-01-22 07:37:00,
2013-01-22 02:42:00,18.6,11.4,29.80,ENE,67,6.4,6.4,73,-99.99,,,-99.99,tws,2013-01-22 07:42:00,
2013-01-22 02:47:00,19.3,9.6,29.81,West,270,19.5,19.5,65,-99.99,,,-99.99,tws,2013-01-22 07:47:00,
2013-01-22 02:52:00,19.4,9.7,29.81,North,360,17.5,17.5,65,-99.99,,,-99.99,tws,2013-01-22 07:52:00,
2013-01-22 02:57:00,19.2,9.4,29.81,WNW,292,16.0,16.0,65,-99.99,,,-99.99,tws,2013-01-22 07:57:00,
2013-01-22 03:03:00,19.1,8.9,29.81,NW,315,11.5,11.5,64,-99.99,,,-99.99,tws,2013-01-22 08:03:00,
2013-01-22 03:08:00,19.2,8.2,29.82,West,270,26.0,26.0,62,-99.99,,,-99.99,tws,2013-01-22 08:08:00,
2013-01-22 03:13:00,19.1,7.8,29.82,NW,315,25.5,25.5,61,-99.99,,,-99.99,tws,2013-01-22 08:13:00,
2013-01-22 03:18:00,19.0,7.7,29.82,NW,315,23.1,23.1,61,-99.99,,,-99.99,tws,2013-01-22 08:18:00,
2013-01-22 03:23:00,18.9,7.5,29.82,WNW,292,28.6,28.6,61,-99.99,,,-99.99,tws,2013-01-22 08:23:00,
2013-01-22 03:28:00,18.9,7.7,29.82,WNW,292,17.3,17.3,61,-99.99,,,-99.99,tws,2013-01-22 08:28:00,
2013-01-22 03:33:00,18.6,7.9,29.83,NW,315,14.4,14.4,62,-99.99,,,-99.99,tws,2013-01-22 08:33:00,
2013-01-22 03:38:00,18.3,8.6,29.83,WNW,292,6.9,6.9,65,-99.99,,,-99.99,tws,2013-01-22 08:38:00,
2013-01-22 03:44:00,18.3,8.0,29.83,WNW,292,22.5,22.5,63,-99.99,,,-99.99,tws,2013-01-22 08:44:00,
2013-01-22 03:49:00,18.2,7.6,29.83,West,270,16.8,16.8,62,-99.99,,,-99.99,tws,2013-01-22 08:49:00,
2013-01-22 03:54:00,18.1,6.2,29.83,West,270,26.9,26.9,59,-99.99,,,-99.99,tws,2013-01-22 08:54:00,
2013-01-22 03:59:00,17.8,6.4,29.83,West,270,18.8,18.8,60,-99.99,,,-99.99,tws,2013-01-22 08:59:00,
2013-01-22 04:04:00,17.6,6.2,29.84,NW,315,22.1,22.1,60,-99.99,,,-99.99,tws,2013-01-22 09:04:00,
2013-01-22 04:09:00,17.5,5.9,29.84,WSW,247,20.9,20.9,60,-99.99,,,-99.99,tws,2013-01-22 09:09:00,
2013-01-22 04:14:00,17.5,5.6,29.84,West,270,22.9,22.9,59,-99.99,,,-99.99,tws,2013-01-22 09:14:00,
2013-01-22 04:19:00,17.4,5.3,29.84,West,270,19.9,19.9,58,-99.99,,,-99.99,tws,2013-01-22 09:19:00,
2013-01-22 04:25:00,17.2,5.3,29.84,NW,315,18.2,18.2,59,-99.99,,,-99.99,tws,2013-01-22 09:25:00,
2013-01-22 04:30:00,17.3,4.5,29.85,WNW,292,30.4,30.4,56,-99.99,,,-99.99,tws,2013-01-22 09:30:00,
2013-01-22 04:35:00,17.2,4.4,29.84,WNW,292,27.8,27.8,56,-99.99,,,-99.99,tws,2013-01-22 09:35:00,
2013-01-22 04:40:00,16.8,4.3,29.85,WNW,292,14.1,14.1,57,-99.99,,,-99.99,tws,2013-01-22 09:40:00,
2013-01-22 04:45:00,16.8,4.0,29.86,West,270,25.8,25.8,56,-99.99,,,-99.99,tws,2013-01-22 09:45:00,
2013-01-22 04:50:00,16.8,4.0,29.86,WNW,292,20.1,20.1,56,-99.99,,,-99.99,tws,2013-01-22 09:50:00,
2013-01-22 04:55:00,16.7,4.1,29.86,WNW,292,11.1,11.1,57,-99.99,,,-99.99,tws,2013-01-22 09:55:00,
2013-01-22 05:00:00,16.6,3.8,29.86,NW,315,11.6,11.6,56,-99.99,,,-99.99,tws,2013-01-22 10:00:00,
2013-01-22 05:05:00,16.6,3.5,29.86,NNW,337,14.9,14.9,56,-99.99,,,-99.99,tws,2013-01-22 10:05:00,
2013-01-22 05:10:00,16.4,3.7,29.87,NW,315,11.4,11.4,57,-99.99,,,-99.99,tws,2013-01-22 10:10:00,
2013-01-22 05:15:00,16.8,3.7,29.87,NNE,22,6.1,6.1,55,-99.99,,,-99.99,tws,2013-01-22 10:15:00,
2013-01-22 05:20:00,16.3,3.9,29.87,NW,315,8.7,8.7,57,-99.99,,,-99.99,tws,2013-01-22 10:20:00,
2013-01-22 05:25:00,15.9,3.8,29.88,NNW,337,10.8,10.8,58,-99.99,,,-99.99,tws,2013-01-22 10:25:00,
2013-01-22 05:30:00,15.8,4.1,29.88,NW,315,4.8,4.8,59,-99.99,,,-99.99,tws,2013-01-22 10:30:00,
2013-01-22 05:35:00,15.8,3.5,29.88,West,270,10.2,10.2,58,-99.99,,,-99.99,tws,2013-01-22 10:35:00,
2013-01-22 05:40:00,15.8,3.7,29.89,NNW,337,8.6,8.6,58,-99.99,,,-99.99,tws,2013-01-22 10:40:00,
2013-01-22 05:46:00,16.0,4.0,29.89,North,360,0.0,0.0,58,-99.99,,,-99.99,tws,2013-01-22 10:46:00,
2013-01-22 05:51:00,15.8,3.9,29.89,WNW,292,0.2,0.2,59,-99.99,,,-99.99,tws,2013-01-22 10:51:00,
2013-01-22 05:56:00,15.8,3.9,29.89,NE,45,6.5,6.5,59,-99.99,,,-99.99,tws,2013-01-22 10:56:00,
2013-01-22 06:01:00,15.4,3.2,29.89,NNW,337,1.4,1.4,58,-99.99,,,-99.99,tws,2013-01-22 11:01:00,
2013-01-22 06:06:00,15.6,2.8,29.89,NNW,337,3.7,3.7,56,-99.99,,,-99.99,tws,2013-01-22 11:06:00,
2013-01-22 06:11:00,15.5,2.6,29.89,NNW,337,16.1,16.1,56,-99.99,,,-99.99,tws,2013-01-22 11:11:00,
2013-01-22 06:17:00,15.5,2.0,29.90,West,270,14.7,14.7,55,-99.99,,,-99.99,tws,2013-01-22 11:17:00,
2013-01-22 06:23:00,15.4,2.4,29.90,West,270,4.9,4.9,56,-99.99,,,-99.99,tws,2013-01-22 11:23:00,
2013-01-22 06:28:00,15.6,2.5,29.91,WSW,247,0.4,0.4,55,-99.99,,,-99.99,tws,2013-01-22 11:28:00,
2013-01-22 06:33:00,16.2,2.7,29.91,WSW,247,3.0,3.0,55,-99.99,,,-99.99,tws,2013-01-22 11:33:00,
2013-01-22 06:38:00,15.7,1.4,29.90,WNW,292,10.1,10.1,52,-99.99,,,-99.99,tws,2013-01-22 11:38:00,
2013-01-22 06:43:00,16.3,2.6,29.91,ENE,67,0.3,0.3,54,-99.99,,,-99.99,tws,2013-01-22 11:43:00,
2013-01-22 06:48:00,16.0,0.7,29.91,WNW,292,9.5,9.5,50,-99.99,,,-99.99,tws,2013-01-22 11:48:00,
2013-01-22 06:53:00,15.8,2.0,29.91,WSW,247,0.6,0.6,54,-99.99,,,-99.99,tws,2013-01-22 11:53:00,
2013-01-22 06:58:00,15.1,2.0,29.91,West,270,6.1,6.1,55,-99.99,,,-99.99,tws,2013-01-22 11:58:00,
2013-01-22 07:03:00,15.5,0.8,29.91,West,270,2.1,2.1,52,-99.99,,,-99.99,tws,2013-01-22 12:03:00,
2013-01-22 07:08:00,14.9,0.9,29.91,WSW,247,3.9,3.9,53,-99.99,,,-99.99,tws,2013-01-22 12:08:00,
2013-01-22 07:13:00,16.2,1.3,29.91,ENE,67,0.1,0.1,51,-99.99,,,-99.99,tws,2013-01-22 12:13:00,
2013-01-22 07:18:00,15.4,-0.9,29.91,West,270,8.5,8.5,48,-99.99,,,-99.99,tws,2013-01-22 12:18:00,
2013-01-22 07:23:00,15.4,-0.8,29.91,NNW,337,7.5,7.5,48,-99.99,,,-99.99,tws,2013-01-22 12:23:00,
2013-01-22 07:28:00,15.1,-1.1,29.91,WNW,292,8.4,8.4,48,-99.99,,,-99.99,tws,2013-01-22 12:28:00,
2013-01-22 07:33:00,15.5,-0.9,29.92,WNW,292,0.2,0.2,47,-99.99,,,-99.99,tws,2013-01-22 12:33:00,
2013-01-22 07:38:00,15.7,-2.0,29.92,West,270,6.3,6.3,45,-99.99,,,-99.99,tws,2013-01-22 12:38:00,
2013-01-22 07:43:00,15.1,-1.4,29.93,West,270,13.7,13.7,47,-99.99,,,-99.99,tws,2013-01-22 12:43:00,
2013-01-22 07:48:00,15.7,-2.1,29.93,NW,315,15.7,15.7,44,-99.99,,,-99.99,tws,2013-01-22 12:48:00,
2013-01-22 07:53:00,15.6,-1.9,29.93,NW,315,12.9,12.9,45,-99.99,,,-99.99,tws,2013-01-22 12:53:00,
2013-01-22 07:58:00,15.9,-0.5,29.93,NNW,337,5.7,5.7,47,-99.99,,,-99.99,tws,2013-01-22 12:58:00,
2013-01-22 08:03:00,15.5,-2.2,29.93,WSW,247,16.6,16.6,45,-99.99,,,-99.99,tws,2013-01-22 13:03:00,
2013-01-22 08:08:00,15.4,-1.9,29.93,WNW,292,16.5,16.5,45,-99.99,,,-99.99,tws,2013-01-22 13:08:00,
2013-01-22 08:14:00,16.2,-2.5,29.94,NW,315,10.6,10.6,43,-99.99,,,-99.99,tws,2013-01-22 13:14:00,
2013-01-22 08:19:00,16.2,-1.8,29.94,NW,315,13.1,13.1,44,-99.99,,,-99.99,tws,2013-01-22 13:19:00,
2013-01-22 08:24:00,17.2,-0.2,29.94,WNW,292,6.2,6.2,46,-99.99,,,-99.99,tws,2013-01-22 13:24:00,
2013-01-22 08:29:00,16.5,-1.9,29.94,NW,315,21.5,21.5,43,-99.99,,,-99.99,tws,2013-01-22 13:29:00,
2013-01-22 08:35:00,16.5,-2.4,29.94,West,270,18.5,18.5,42,-99.99,,,-99.99,tws,2013-01-22 13:35:00,
2013-01-22 08:40:00,16.3,-2.2,29.95,WNW,292,18.0,18.0,43,-99.99,,,-99.99,tws,2013-01-22 13:40:00,
2013-01-22 08:45:00,16.3,-2.5,29.94,WNW,292,23.7,23.7,42,-99.99,,,-99.99,tws,2013-01-22 13:45:00,
2013-01-22 08:50:00,16.5,-2.3,29.95,West,270,19.4,19.4,42,-99.99,,,-99.99,tws,2013-01-22 13:50:00,
2013-01-22 08:55:00,16.7,-1.7,29.95,WNW,292,17.4,17.4,43,-99.99,,,-99.99,tws,2013-01-22 13:55:00,
2013-01-22 09:00:00,16.4,-2.5,29.95,NW,315,14.4,14.4,42,-99.99,,,-99.99,tws,2013-01-22 14:00:00,
2013-01-22 09:05:00,16.5,-2.4,29.95,WNW,292,17.6,17.6,42,-99.99,,,-99.99,tws,2013-01-22 14:05:00,
2013-01-22 09:10:00,16.6,-2.4,29.95,West,270,27.9,27.9,42,-99.99,,,-99.99,tws,2013-01-22 14:10:00,
2013-01-22 09:15:00,16.8,-2.4,29.95,West,270,11.4,11.4,42,-99.99,,,-99.99,tws,2013-01-22 14:15:00,
2013-01-22 09:20:00,16.6,-2.3,29.95,West,270,22.0,22.0,42,-99.99,,,-99.99,tws,2013-01-22 14:20:00,
2013-01-22 09:25:00,16.7,-2.2,29.95,West,270,23.0,23.0,42,-99.99,,,-99.99,tws,2013-01-22 14:25:00,
2013-01-22 09:31:00,16.8,-2.4,29.95,WNW,292,26.2,26.2,42,-99.99,,,-99.99,tws,2013-01-22 14:31:00,
2013-01-22 09:36:00,16.7,-2.7,29.95,NNW,337,30.5,30.5,41,-99.99,,,-99.99,tws,2013-01-22 14:36:00,
2013-01-22 09:41:00,16.5,-3.1,29.95,WNW,292,26.9,26.9,41,-99.99,,,-99.99,tws,2013-01-22 14:41:00,
2013-01-22 09:46:00,17.6,-1.7,29.96,West,270,17.7,17.7,41,-99.99,,,-99.99,tws,2013-01-22 14:46:00,
2013-01-22 09:51:00,17.1,-2.9,29.96,West,270,29.7,29.7,40,-99.99,,,-99.99,tws,2013-01-22 14:51:00,
2013-01-22 09:56:00,17.3,-2.5,29.96,WSW,247,22.6,22.6,41,-99.99,,,-99.99,tws,2013-01-22 14:56:00,
2013-01-22 10:01:00,17.2,-3.1,29.96,NW,315,28.6,28.6,40,-99.99,,,-99.99,tws,2013-01-22 15:01:00,
2013-01-22 10:06:00,17.3,-3.0,29.96,WNW,292,22.1,22.1,40,-99.99,,,-99.99,tws,2013-01-22 15:06:00,
2013-01-22 10:11:00,18.0,-2.3,29.96,WNW,292,21.9,21.9,40,-99.99,,,-99.99,tws,2013-01-22 15:11:00,
2013-01-22 10:16:00,18.6,-1.4,29.96,West,270,18.1,18.1,40,-99.99,,,-99.99,tws,2013-01-22 15:16:00,
2013-01-22 10:21:00,17.2,-3.1,29.96,WNW,292,35.6,35.6,40,-99.99,,,-99.99,tws,2013-01-22 15:21:00,
2013-01-22 10:26:00,17.6,-2.9,29.96,West,270,26.7,26.7,39,-99.99,,,-99.99,tws,2013-01-22 15:26:00,
2013-01-22 10:31:00,18.2,-2.8,29.96,NW,315,12.9,12.9,39,-99.99,,,-99.99,tws,2013-01-22 15:31:00,
2013-01-22 10:36:00,18.0,-2.9,29.96,West,270,19.7,19.7,39,-99.99,,,-99.99,tws,2013-01-22 15:36:00,
2013-01-22 10:42:00,18.4,-2.7,29.96,West,270,19.8,19.8,38,-99.99,,,-99.99,tws,2013-01-22 15:42:00,
2013-01-22 10:47:00,18.2,-3.6,29.96,NNW,337,14.2,14.2,37,-99.99,,,-99.99,tws,2013-01-22 15:47:00,
2013-01-22 10:52:00,18.1,-3.3,29.96,WSW,247,18.1,18.1,38,-99.99,,,-99.99,tws,2013-01-22 15:52:00,
2013-01-22 10:58:00,21.9,-0.6,29.96,WNW,292,1.3,1.3,37,-99.99,,,-99.99,tws,2013-01-22 15:58:00,
2013-01-22 11:03:00,20.3,-1.5,29.95,West,270,7.2,7.2,37,-99.99,,,-99.99,tws,2013-01-22 16:03:00,
2013-01-22 11:08:00,20.2,-2.1,29.95,NW,315,5.1,5.1,36,-99.99,,,-99.99,tws,2013-01-22 16:08:00,
2013-01-22 11:13:00,22.1,0.0,29.95,ENE,67,4.4,4.4,37,-99.99,,,-99.99,tws,2013-01-22 16:13:00,
2013-01-22 11:18:00,25.0,0.7,29.95,SSW,202,2.5,2.5,34,-99.99,,,-99.99,tws,2013-01-22 16:18:00,
2013-01-22 11:23:00,23.4,0.5,29.95,WSW,247,8.7,8.7,36,-99.99,,,-99.99,tws,2013-01-22 16:23:00,
2013-01-22 11:28:00,19.6,-2.7,29.95,West,270,17.9,17.9,36,-99.99,,,-99.99,tws,2013-01-22 16:28:00,
2013-01-22 11:33:00,19.3,-2.9,29.95,WNW,292,13.3,13.3,37,-99.99,,,-99.99,tws,2013-01-22 16:33:00,
2013-01-22 11:38:00,20.1,-2.8,29.95,NW,315,13.7,13.7,35,-99.99,,,-99.99,tws,2013-01-22 16:38:00,
2013-01-22 11:43:00,23.8,0.4,29.95,SSE,157,0.1,0.1,35,-99.99,,,-99.99,tws,2013-01-22 16:43:00,
2013-01-22 11:48:00,20.7,-2.3,29.95,WNW,292,5.0,5.0,35,-99.99,,,-99.99,tws,2013-01-22 16:48:00,
2013-01-22 11:53:00,23.8,-1.4,29.95,SSW,202,0.4,0.4,32,-99.99,,,-99.99,tws,2013-01-22 16:53:00,
2013-01-22 11:58:00,25.7,3.1,29.94,NE,45,4.3,4.3,37,-99.99,,,-99.99,tws,2013-01-22 16:58:00,
2013-01-22 12:03:00,23.5,0.5,29.94,West,270,7.8,7.8,36,-99.99,,,-99.99,tws,2013-01-22 17:03:00,
2013-01-22 12:08:00,21.5,-1.3,29.94,WSW,247,8.7,8.7,36,-99.99,,,-99.99,tws,2013-01-22 17:08:00,
2013-01-22 12:13:00,24.5,0.4,29.94,ENE,67,0.0,0.0,34,-99.99,,,-99.99,tws,2013-01-22 17:13:00,
2013-01-22 12:18:00,24.3,0.6,29.94,West,270,3.4,3.4,35,-99.99,,,-99.99,tws,2013-01-22 17:18:00,
2013-01-22 12:23:00,23.0,-0.1,29.94,WSW,247,0.5,0.5,36,-99.99,,,-99.99,tws,2013-01-22 17:23:00,
2013-01-22 12:28:00,21.8,-1.3,29.94,NNW,337,6.6,6.6,36,-99.99,,,-99.99,tws,2013-01-22 17:28:00,
2013-01-22 12:33:00,20.0,-2.4,29.93,WNW,292,16.5,16.5,36,-99.99,,,-99.99,tws,2013-01-22 17:33:00,
2013-01-22 12:38:00,20.8,-1.9,29.93,NW,315,15.7,15.7,36,-99.99,,,-99.99,tws,2013-01-22 17:38:00,
2013-01-22 12:43:00,20.4,-1.9,29.93,West,270,7.3,7.3,36,-99.99,,,-99.99,tws,2013-01-22 17:43:00,
2013-01-22 12:48:00,21.7,-1.1,29.93,West,270,9.8,9.8,36,-99.99,,,-99.99,tws,2013-01-22 17:48:00,
2013-01-22 12:54:00,21.0,-1.4,29.93,West,270,11.6,11.6,36,-99.99,,,-99.99,tws,2013-01-22 17:54:00,
2013-01-22 12:59:00,20.7,-1.5,29.93,West,270,15.1,15.1,37,-99.99,,,-99.99,tws,2013-01-22 17:59:00,
2013-01-22 13:04:00,20.9,-1.5,29.93,WNW,292,14.8,14.8,36,-99.99,,,-99.99,tws,2013-01-22 18:04:00,
2013-01-22 13:09:00,21.2,-1.5,29.93,West,270,14.4,14.4,36,-99.99,,,-99.99,tws,2013-01-22 18:09:00,
2013-01-22 13:14:00,21.3,-0.2,29.93,NNW,337,7.8,7.8,38,-99.99,,,-99.99,tws,2013-01-22 18:14:00,
2013-01-22 13:19:00,20.7,-0.6,29.93,NNW,337,13.6,13.6,38,-99.99,,,-99.99,tws,2013-01-22 18:19:00,
2013-01-22 13:24:00,20.1,-1.1,29.93,NW,315,12.0,12.0,38,-99.99,,,-99.99,tws,2013-01-22 18:24:00,
2013-01-22 13:29:00,19.9,-1.1,29.93,WNW,292,17.9,17.9,39,-99.99,,,-99.99,tws,2013-01-22 18:29:00,
2013-01-22 13:34:00,19.8,-1.4,29.93,WNW,292,14.6,14.6,38,-99.99,,,-99.99,tws,2013-01-22 18:34:00,
2013-01-22 13:39:00,19.8,-1.9,29.93,NNW,337,16.5,16.5,38,-99.99,,,-99.99,tws,2013-01-22 18:39:00,
2013-01-22 13:44:00,19.5,-1.7,29.93,WNW,292,13.1,13.1,38,-99.99,,,-99.99,tws,2013-01-22 18:44:00,
2013-01-22 13:49:00,20.7,-0.3,29.93,WNW,292,4.4,4.4,39,-99.99,,,-99.99,tws,2013-01-22 18:49:00,
2013-01-22 13:55:00,20.2,-0.5,29.94,West,270,6.2,6.2,39,-99.99,,,-99.99,tws,2013-01-22 18:55:00,
2013-01-22 14:00:00,18.9,-2.4,29.93,WNW,292,22.8,22.8,38,-99.99,,,-99.99,tws,2013-01-22 19:00:00,
2013-01-22 14:05:00,19.0,-2.8,29.94,West,270,13.8,13.8,37,-99.99,,,-99.99,tws,2013-01-22 19:05:00,
2013-01-22 14:10:00,18.9,-2.4,29.94,West,270,12.2,12.2,38,-99.99,,,-99.99,tws,2013-01-22 19:10:00,
2013-01-22 14:16:00,19.5,-1.5,29.94,NW,315,11.1,11.1,39,-99.99,,,-99.99,tws,2013-01-22 19:16:00,
2013-01-22 14:21:00,18.2,-3.2,29.95,West,270,19.1,19.1,38,-99.99,,,-99.99,tws,2013-01-22 19:21:00,
2013-01-22 14:26:00,18.9,-2.2,29.95,NW,315,12.8,12.8,39,-99.99,,,-99.99,tws,2013-01-22 19:26:00,
2013-01-22 14:31:00,18.6,-2.8,29.95,West,270,18.9,18.9,38,-99.99,,,-99.99,tws,2013-01-22 19:31:00,
2013-01-22 14:36:00,18.3,-3.2,29.95,West,270,17.3,17.3,38,-99.99,,,-99.99,tws,2013-01-22 19:36:00,
2013-01-22 14:41:00,18.4,-2.9,29.95,West,270,14.9,14.9,38,-99.99,,,-99.99,tws,2013-01-22 19:41:00,
2013-01-22 14:46:00,19.1,-1.4,29.95,WNW,292,8.7,8.7,40,-99.99,,,-99.99,tws,2013-01-22 19:46:00,
2013-01-22 14:51:00,20.7,-1.7,29.95,West,270,17.8,17.8,36,-99.99,,,-99.99,tws,2013-01-22 19:51:00,
2013-01-22 14:56:00,20.5,-2.1,29.95,NW,315,17.9,17.9,36,-99.99,,,-99.99,tws,2013-01-22 19:56:00,
2013-01-22 15:01:00,20.4,-2.6,29.95,WNW,292,21.2,21.2,35,-99.99,,,-99.99,tws,2013-01-22 20:01:00,
2013-01-22 15:06:00,21.0,-2.3,29.96,WNW,292,17.5,17.5,35,-99.99,,,-99.99,tws,2013-01-22 20:06:00,
2013-01-22 15:11:00,21.2,-1.7,29.95,NNW,337,24.8,24.8,36,-99.99,,,-99.99,tws,2013-01-22 20:11:00,
2013-01-22 15:16:00,20.2,-2.8,29.96,West,270,21.4,21.4,35,-99.99,,,-99.99,tws,2013-01-22 20:16:00,
2013-01-22 15:21:00,21.3,-1.4,29.97,WNW,292,16.3,16.3,36,-99.99,,,-99.99,tws,2013-01-22 20:21:00,
2013-01-22 15:26:00,22.3,-0.4,29.97,WNW,292,11.7,11.7,36,-99.99,,,-99.99,tws,2013-01-22 20:26:00,
2013-01-22 15:32:00,19.1,-3.5,29.97,NW,315,34.2,34.2,36,-99.99,,,-99.99,tws,2013-01-22 20:32:00,
2013-01-22 15:37:00,20.4,-2.0,29.97,WNW,292,18.9,18.9,36,-99.99,,,-99.99,tws,2013-01-22 20:37:00,
2013-01-22 15:42:00,19.8,-2.9,29.97,WNW,292,24.9,24.9,36,-99.99,,,-99.99,tws,2013-01-22 20:42:00,
2013-01-22 15:47:00,19.9,-2.8,29.98,NNW,337,18.6,18.6,36,-99.99,,,-99.99,tws,2013-01-22 20:47:00,
2013-01-22 15:53:00,20.2,-1.9,29.98,WNW,292,17.9,17.9,37,-99.99,,,-99.99,tws,2013-01-22 20:53:00,
2013-01-22 15:58:00,19.3,-2.2,29.98,West,270,22.3,22.3,38,-99.99,,,-99.99,tws,2013-01-22 20:58:00,
2013-01-22 16:03:00,20.0,-1.0,29.98,NW,315,18.2,18.2,39,-99.99,,,-99.99,tws,2013-01-22 21:03:00,
2013-01-22 16:08:00,19.9,-0.5,29.99,NNW,337,17.9,17.9,40,-99.99,,,-99.99,tws,2013-01-22 21:08:00,
2013-01-22 16:13:00,19.2,-0.4,29.99,WNW,292,16.3,16.3,41,-99.99,,,-99.99,tws,2013-01-22 21:13:00,
2013-01-22 16:18:00,18.9,-1.2,29.99,WNW,292,18.6,18.6,40,-99.99,,,-99.99,tws,2013-01-22 21:18:00,
2013-01-22 16:23:00,18.7,-1.1,30.00,WNW,292,17.5,17.5,41,-99.99,,,-99.99,tws,2013-01-22 21:23:00,
2013-01-22 16:29:00,17.6,-1.3,30.00,WNW,292,11.3,11.3,42,-99.99,,,-99.99,tws,2013-01-22 21:29:00,
2013-01-22 16:34:00,16.8,-2.4,30.00,West,270,21.7,21.7,42,-99.99,,,-99.99,tws,2013-01-22 21:34:00,
2013-01-22 16:39:00,16.7,-2.7,30.00,NW,315,25.2,25.2,41,-99.99,,,-99.99,tws,2013-01-22 21:39:00,
2013-01-22 16:44:00,16.5,-3.9,30.01,NNW,337,21.0,21.0,39,-99.99,,,-99.99,tws,2013-01-22 21:44:00,
2013-01-22 16:49:00,16.4,-3.2,30.01,WNW,292,12.6,12.6,41,-99.99,,,-99.99,tws,2013-01-22 21:49:00,
2013-01-22 16:54:00,16.2,-3.3,30.01,WNW,292,17.7,17.7,41,-99.99,,,-99.99,tws,2013-01-22 21:54:00,
2013-01-22 16:59:00,15.9,-3.7,30.02,West,270,25.9,25.9,41,-99.99,,,-99.99,tws,2013-01-22 21:59:00,
2013-01-22 17:04:00,15.6,-3.2,30.02,NNW,337,10.2,10.2,42,-99.99,,,-99.99,tws,2013-01-22 22:04:00,
2013-01-22 17:09:00,15.6,-3.3,30.02,West,270,16.6,16.6,42,-99.99,,,-99.99,tws,2013-01-22 22:09:00,
2013-01-22 17:14:00,15.5,-3.4,30.03,West,270,13.6,13.6,42,-99.99,,,-99.99,tws,2013-01-22 22:14:00,
2013-01-22 17:19:00,15.4,-3.6,30.03,West,270,13.5,13.5,42,-99.99,,,-99.99,tws,2013-01-22 22:19:00,
2013-01-22 17:24:00,15.1,-3.5,30.03,West,270,17.9,17.9,43,-99.99,,,-99.99,tws,2013-01-22 22:24:00,
2013-01-22 17:30:00,15.0,-3.9,30.04,WNW,292,15.2,15.2,42,-99.99,,,-99.99,tws,2013-01-22 22:30:00,
2013-01-22 17:35:00,14.8,-3.3,30.04,WNW,292,9.5,9.5,44,-99.99,,,-99.99,tws,2013-01-22 22:35:00,
2013-01-22 17:40:00,14.8,-3.2,30.05,West,270,6.8,6.8,44,-99.99,,,-99.99,tws,2013-01-22 22:40:00,
2013-01-22 17:45:00,14.6,-3.5,30.05,West,270,18.5,18.5,44,-99.99,,,-99.99,tws,2013-01-22 22:45:00,
2013-01-22 17:50:00,14.6,-3.4,30.05,NW,315,15.8,15.8,44,-99.99,,,-99.99,tws,2013-01-22 22:50:00,
2013-01-22 17:55:00,14.6,-3.5,30.05,West,270,17.5,17.5,44,-99.99,,,-99.99,tws,2013-01-22 22:55:00,
2013-01-22 18:00:00,14.5,-3.5,30.05,NNW,337,15.8,15.8,44,-99.99,,,-99.99,tws,2013-01-22 23:00:00,
2013-01-22 18:05:00,14.3,-3.6,30.05,West,270,16.1,16.1,44,-99.99,,,-99.99,tws,2013-01-22 23:05:00,
2013-01-22 18:10:00,14.4,-3.4,30.06,WNW,292,14.6,14.6,44,-99.99,,,-99.99,tws,2013-01-22 23:10:00,
2013-01-22 18:15:00,14.4,-3.2,30.06,WNW,292,12.9,12.9,45,-99.99,,,-99.99,tws,2013-01-22 23:15:00,
2013-01-22 18:20:00,14.4,-3.1,30.07,West,270,15.9,15.9,45,-99.99,,,-99.99,tws,2013-01-22 23:20:00,
2013-01-22 18:26:00,14.3,-3.3,30.07,West,270,19.5,19.5,45,-99.99,,,-99.99,tws,2013-01-22 23:26:00,
2013-01-22 18:32:00,14.1,-3.6,30.07,West,270,14.8,14.8,44,-99.99,,,-99.99,tws,2013-01-22 23:32:00,
2013-01-22 18:37:00,14.0,-2.5,30.07,WSW,247,6.7,6.7,47,-99.99,,,-99.99,tws,2013-01-22 23:37:00,
2013-01-22 18:42:00,13.8,-1.4,30.07,West,270,7.0,7.0,50,-99.99,,,-99.99,tws,2013-01-22 23:42:00,
2013-01-22 18:48:00,13.9,-1.4,30.07,NE,45,2.1,2.1,50,-99.99,,,-99.99,tws,2013-01-22 23:48:00,
2013-01-22 18:53:00,14.0,-1.6,30.08,West,270,0.0,0.0,49,-99.99,,,-99.99,tws,2013-01-22 23:53:00,
2013-01-22 18:58:00,13.5,-3.8,30.08,West,270,13.8,13.8,45,-99.99,,,-99.99,tws,2013-01-22 23:58:00,
2013-01-22 19:03:00,13.8,-4.9,30.08,WNW,292,26.8,26.8,42,-99.99,,,-99.99,tws,2013-01-23 00:03:00,
2013-01-22 19:08:00,13.5,-4.9,30.08,WSW,247,15.6,15.6,43,-99.99,,,-99.99,tws,2013-01-23 00:08:00,
2013-01-22 19:13:00,13.5,-5.1,30.08,NW,315,10.4,10.4,43,-99.99,,,-99.99,tws,2013-01-23 00:13:00,
2013-01-22 19:18:00,13.5,-5.6,30.08,West,270,19.6,19.6,41,-99.99,,,-99.99,tws,2013-01-23 00:18:00,
2013-01-22 19:23:00,13.5,-5.6,30.08,WNW,292,17.8,17.8,41,-99.99,,,-99.99,tws,2013-01-23 00:23:00,
2013-01-22 19:28:00,13.2,-4.8,30.09,West,270,15.2,15.2,43,-99.99,,,-99.99,tws,2013-01-23 00:28:00,
2013-01-22 19:33:00,13.2,-5.2,30.09,West,270,20.4,20.4,43,-99.99,,,-99.99,tws,2013-01-23 00:33:00,
2013-01-22 19:38:00,13.2,-5.0,30.09,WNW,292,19.7,19.7,43,-99.99,,,-99.99,tws,2013-01-23 00:38:00,
2013-01-22 19:43:00,13.0,-4.9,30.09,West,270,17.6,17.6,44,-99.99,,,-99.99,tws,2013-01-23 00:43:00,
2013-01-22 19:48:00,12.9,-5.1,30.09,NW,315,23.1,23.1,43,-99.99,,,-99.99,tws,2013-01-23 00:48:00,
2013-01-22 19:53:00,12.8,-5.0,30.09,WNW,292,23.9,23.9,44,-99.99,,,-99.99,tws,2013-01-23 00:53:00,
2013-01-22 19:58:00,12.6,-4.6,30.09,NW,315,14.5,14.5,45,-99.99,,,-99.99,tws,2013-01-23 00:58:00,
2013-01-22 20:03:00,12.7,-4.9,30.09,NW,315,16.1,16.1,44,-99.99,,,-99.99,tws,2013-01-23 01:03:00,
2013-01-22 20:08:00,12.6,-5.0,30.09,WNW,292,21.0,21.0,44,-99.99,,,-99.99,tws,2013-01-23 01:08:00,
2013-01-22 20:13:00,12.5,-4.7,30.09,WNW,292,19.9,19.9,45,-99.99,,,-99.99,tws,2013-01-23 01:13:00,
2013-01-22 20:18:00,12.5,-4.9,30.09,West,270,25.2,25.2,45,-99.99,,,-99.99,tws,2013-01-23 01:18:00,
2013-01-22 20:23:00,12.3,-4.6,30.09,WSW,247,16.3,16.3,46,-99.99,,,-99.99,tws,2013-01-23 01:23:00,
2013-01-22 20:28:00,12.0,-4.1,30.09,NNW,337,9.7,9.7,47,-99.99,,,-99.99,tws,2013-01-23 01:28:00,
2013-01-22 20:33:00,11.9,-4.0,30.09,West,270,4.7,4.7,48,-99.99,,,-99.99,tws,2013-01-23 01:33:00,
2013-01-22 20:38:00,11.8,-4.1,30.10,WNW,292,13.3,13.3,48,-99.99,,,-99.99,tws,2013-01-23 01:38:00,
2013-01-22 20:43:00,11.8,-3.7,30.10,West,270,11.8,11.8,49,-99.99,,,-99.99,tws,2013-01-23 01:43:00,
2013-01-22 20:48:00,11.5,-3.1,30.10,WNW,292,9.6,9.6,51,-99.99,,,-99.99,tws,2013-01-23 01:48:00,
2013-01-22 20:53:00,11.4,-2.8,30.10,WNW,292,10.7,10.7,52,-99.99,,,-99.99,tws,2013-01-23 01:53:00,
2013-01-22 20:58:00,11.5,-2.8,30.11,WNW,292,11.8,11.8,52,-99.99,,,-99.99,tws,2013-01-23 01:58:00,
2013-01-22 21:03:00,11.2,-2.6,30.11,West,270,11.8,11.8,53,-99.99,,,-99.99,tws,2013-01-23 02:03:00,
2013-01-22 21:08:00,11.2,-2.6,30.11,West,270,13.0,13.0,53,-99.99,,,-99.99,tws,2013-01-23 02:08:00,
2013-01-22 21:13:00,11.3,-2.4,30.11,West,270,9.8,9.8,53,-99.99,,,-99.99,tws,2013-01-23 02:13:00,
2013-01-22 21:18:00,11.3,-2.5,30.11,West,270,12.0,12.0,53,-99.99,,,-99.99,tws,2013-01-23 02:18:00,
2013-01-22 21:23:00,11.1,-2.7,30.11,WNW,292,6.4,6.4,53,-99.99,,,-99.99,tws,2013-01-23 02:23:00,
2013-01-22 21:28:00,10.5,-2.6,30.11,WNW,292,6.8,6.8,55,-99.99,,,-99.99,tws,2013-01-23 02:28:00,
2013-01-22 21:33:00,11.1,-4.3,30.11,WNW,292,22.7,22.7,49,-99.99,,,-99.99,tws,2013-01-23 02:33:00,
2013-01-22 21:39:00,11.0,-4.2,30.12,NW,315,7.8,7.8,49,-99.99,,,-99.99,tws,2013-01-23 02:39:00,
2013-01-22 21:45:00,10.5,-4.3,30.12,WNW,292,4.3,4.3,50,-99.99,,,-99.99,tws,2013-01-23 02:45:00,
2013-01-22 21:50:00,11.0,-4.1,30.12,WNW,292,2.2,2.2,50,-99.99,,,-99.99,tws,2013-01-23 02:50:00,
2013-01-22 21:55:00,11.4,-4.7,30.12,SSE,157,1.6,1.6,47,-99.99,,,-99.99,tws,2013-01-23 02:55:00,
2013-01-22 22:00:00,11.9,-4.0,30.12,South,180,0.0,0.0,48,-99.99,,,-99.99,tws,2013-01-23 03:00:00,
2013-01-22 22:05:00,10.6,-4.1,30.12,WSW,247,1.3,1.3,50,-99.99,,,-99.99,tws,2013-01-23 03:05:00,
2013-01-22 22:10:00,11.1,-3.9,30.12,SW,225,1.9,1.9,50,-99.99,,,-99.99,tws,2013-01-23 03:10:00,
2013-01-22 22:15:00,10.4,-4.0,30.12,West,270,0.0,0.0,51,-99.99,,,-99.99,tws,2013-01-23 03:15:00,
2013-01-22 22:20:00,10.3,-4.1,30.12,WSW,247,3.1,3.1,51,-99.99,,,-99.99,tws,2013-01-23 03:20:00,
2013-01-22 22:25:00,10.5,-4.0,30.13,SW,225,6.5,6.5,51,-99.99,,,-99.99,tws,2013-01-23 03:25:00,
2013-01-22 22:30:00,10.6,-4.1,30.13,WSW,247,5.9,5.9,50,-99.99,,,-99.99,tws,2013-01-23 03:30:00,
2013-01-22 22:35:00,10.4,-4.2,30.13,SW,225,7.7,7.7,51,-99.99,,,-99.99,tws,2013-01-23 03:35:00,
2013-01-22 22:40:00,10.0,-4.2,30.13,SW,225,7.5,7.5,52,-99.99,,,-99.99,tws,2013-01-23 03:40:00,
2013-01-22 22:45:00,10.2,-4.5,30.14,West,270,7.2,7.2,51,-99.99,,,-99.99,tws,2013-01-23 03:45:00,
2013-01-22 22:50:00,10.2,-4.5,30.14,SW,225,4.6,4.6,51,-99.99,,,-99.99,tws,2013-01-23 03:50:00,
2013-01-22 22:55:00,10.8,-4.0,30.13,SSW,202,0.0,0.0,50,-99.99,,,-99.99,tws,2013-01-23 03:55:00,
2013-01-22 23:00:00,10.2,-4.4,30.14,SSW,202,3.0,3.0,51,-99.99,,,-99.99,tws,2013-01-23 04:00:00,
2013-01-22 23:06:00,10.5,-4.2,30.14,SSW,202,0.3,0.3,50,-99.99,,,-99.99,tws,2013-01-23 04:06:00,
2013-01-22 23:11:00,10.6,-3.9,30.14,SE,135,0.6,0.6,51,-99.99,,,-99.99,tws,2013-01-23 04:11:00,
2013-01-22 23:16:00,9.3,-3.8,30.14,East,90,0.0,0.0,54,-99.99,,,-99.99,tws,2013-01-23 04:16:00,
2013-01-22 23:22:00,9.6,-3.3,30.14,NE,45,0.4,0.4,55,-99.99,,,-99.99,tws,2013-01-23 04:22:00,
2013-01-22 23:27:00,10.3,-3.9,30.14,ENE,67,0.0,0.0,52,-99.99,,,-99.99,tws,2013-01-23 04:27:00,
2013-01-22 23:33:00,8.5,-3.5,30.14,West,270,0.0,0.0,57,-99.99,,,-99.99,tws,2013-01-23 04:33:00,
2013-01-22 23:39:00,10.5,-3.2,30.14,SW,225,0.0,0.0,53,-99.99,,,-99.99,tws,2013-01-23 04:39:00,
2013-01-22 23:44:00,9.6,-4.1,30.13,East,90,0.8,0.8,53,-99.99,,,-99.99,tws,2013-01-23 04:44:00,
2013-01-22 23:49:00,8.5,-4.2,30.13,NNW,337,2.0,2.0,55,-99.99,,,-99.99,tws,2013-01-23 04:49:00,
2013-01-22 23:54:00,9.6,-3.8,30.13,WNW,292,0.0,0.0,54,-99.99,,,-99.99,tws,2013-01-23 04:54:00,
2013-01-22 23:59:00,9.4,-5.0,30.12,West,270,6.4,6.4,51,-99.99,,,-99.99,tws,2013-01-23 04:59:00,